Etusivu
METAR-TAF:

METAR-TAF

Lentoasemat :

Riian kansainvälinen lentoasema

Riika, Latvia

Leveyspiiri: 56-55N, Pituuspiiri: 023-58E, korkeus merenpinnasta: 10 m

Tämänhetkinen sää

Tämä raportti tehtiin 15 minuuttia sitten, kello 04.50 UTC
Tuuli 3 kn idästä/koillisesta
Lämpötila -1°C
Kosteus 74%
Ilmanpaine 1020 hPa
Näkyvyys 10 km tai enemmän
ei pilviä alle 1500 m:ssä eikä cumulonimbus-pilviä

METAR: EVRA 040450Z 06003KT CAVOK M01/M05 Q1020 NOSIG

Aika: 07:05 (05:05 UTC)

Sääennuste

Tämä raportti tehtiin 3 tuntia ja 4 minuuttia sitten, kello 02.01 UTC
Ennuste voimassa 04. päivästä klo 03 UTC - 05. päivään klo 03 UTC
Tuuli 7 kn idästä
Näkyvyys 10 km tai enemmän
ei pilviä alle 1500 m:ssä eikä cumulonimbus-pilviä

TAF: EVRA 040201Z 0403/0503 09007KT CAVOK

Säähavainnot ja -ennusteet yli 4000 lentoasemalta (METAR- ja TAF-raportit).

Käytössä olevat sääasemat on merkitty karttaan keltaisilla ja punaisilla pisteillä.

Aseta hiiri pisteen päälle nähdäksesi sääaseman nimen.

Klikkaa sitten nähdäksesi säähavainnot ja -ennusteet.

Kartan vaihtaminen: klikkaa mustalla rastilla varustettuja vihreitä pisteitä, niin voit zoomata sisään; viivalla varustettua vihreää pistettä, niin voit zoomata ulos tai vihreitä nuolia, niin pääset viereisille kartoille.


METAR-TAF: